createdAt,value
2022-08-20T00:00:18.840Z,17.27
2022-08-20T00:03:01.205Z,16.42
2022-08-20T00:05:41.022Z,18.05
2022-08-20T00:08:09.232Z,16.55
2022-08-20T00:10:38.837Z,18.45
2022-08-20T00:13:09.040Z,19.73
2022-08-20T00:15:40.218Z,13.00
2022-08-20T00:18:08.099Z,15.82
2022-08-20T00:20:39.152Z,16.65
2022-08-20T00:23:10.439Z,18.25
2022-08-20T00:25:38.221Z,17.10
2022-08-20T00:28:07.086Z,17.38
2022-08-20T00:30:35.535Z,17.60
2022-08-20T00:33:08.348Z,20.05
2022-08-20T00:35:40.178Z,19.98
2022-08-20T00:38:08.293Z,21.50
2022-08-20T00:40:44.103Z,17.25
2022-08-20T00:43:28.680Z,16.77
2022-08-20T00:45:56.395Z,20.27
2022-08-20T00:48:30.568Z,22.02
2022-08-20T00:51:05.782Z,22.70
2022-08-20T00:53:34.677Z,19.20
2022-08-20T00:56:01.791Z,18.42
2022-08-20T00:58:28.998Z,21.00
2022-08-20T01:00:57.016Z,20.55
2022-08-20T01:03:24.158Z,19.85
2022-08-20T01:05:51.967Z,20.58
2022-08-20T01:08:23.189Z,18.27
2022-08-20T01:10:53.839Z,18.98
2022-08-20T01:13:24.101Z,18.48
2022-08-20T01:15:54.580Z,19.05
2022-08-20T01:18:25.083Z,19.38
2022-08-20T01:21:02.884Z,22.08
2022-08-20T01:24:06.889Z,21.42
2022-08-20T01:26:41.357Z,17.95
2022-08-20T01:29:17.951Z,18.05
2022-08-20T01:31:45.348Z,18.83
2022-08-20T01:34:18.132Z,16.77
2022-08-20T01:36:51.421Z,19.23
2022-08-20T01:39:23.063Z,20.02
2022-08-20T01:42:16.936Z,19.65
2022-08-20T01:44:47.092Z,23.67
2022-08-20T01:47:26.820Z,20.88
2022-08-20T01:49:59.825Z,22.13
2022-08-20T01:52:57.766Z,25.17
2022-08-20T01:55:26.837Z,21.90
2022-08-20T01:57:54.430Z,22.13
2022-08-20T02:00:22.491Z,20.63
2022-08-20T02:02:50.526Z,23.38
2022-08-20T02:05:18.035Z,24.83
2022-08-20T02:07:44.963Z,26.77
2022-08-20T02:10:14.671Z,23.50
2022-08-20T02:12:41.824Z,26.33
2022-08-20T02:15:11.165Z,29.80
2022-08-20T02:17:39.343Z,25.80
2022-08-20T02:20:08.323Z,29.33
2022-08-20T02:22:49.852Z,26.33
2022-08-20T02:25:18.993Z,28.58
2022-08-20T02:27:48.506Z,30.25
2022-08-20T02:30:27.510Z,25.67
2022-08-20T02:32:56.370Z,30.00
2022-08-20T02:35:24.358Z,29.00
2022-08-20T02:37:52.574Z,28.65
2022-08-20T02:40:27.334Z,27.15
2022-08-20T02:42:59.138Z,23.25
2022-08-20T02:45:26.713Z,30.33
2022-08-20T02:47:54.027Z,30.50
2022-08-20T02:50:22.281Z,29.33
2022-08-20T02:52:51.978Z,26.38
2022-08-20T02:55:27.232Z,30.80
2022-08-20T02:57:58.547Z,29.65
2022-08-20T03:00:27.216Z,28.52
2022-08-20T03:02:54.022Z,26.75
2022-08-20T03:05:21.012Z,27.35
2022-08-20T03:07:53.562Z,25.55
2022-08-20T03:10:30.202Z,29.67
2022-08-20T03:12:57.125Z,31.20
2022-08-20T03:15:24.038Z,29.90
2022-08-20T03:17:51.100Z,30.08
2022-08-20T03:20:17.891Z,30.77
2022-08-20T03:22:50.892Z,29.48
2022-08-20T03:25:18.812Z,29.17
2022-08-20T03:27:47.206Z,29.08
2022-08-20T03:30:21.965Z,27.27
2022-08-20T03:32:48.798Z,24.00
2022-08-20T03:35:17.754Z,27.83
2022-08-20T03:37:50.467Z,25.67
2022-08-20T03:40:26.181Z,23.63
2022-08-20T03:42:53.476Z,27.98
2022-08-20T03:45:22.303Z,30.80
2022-08-20T03:47:51.756Z,24.98
2022-08-20T03:50:22.927Z,31.38
2022-08-20T03:52:51.568Z,31.80
2022-08-20T03:55:18.862Z,33.40
2022-08-20T03:57:52.212Z,35.92
2022-08-20T04:00:33.071Z,34.42
2022-08-20T04:03:00.887Z,33.63
2022-08-20T04:05:30.301Z,37.22
2022-08-20T04:08:02.784Z,40.55
2022-08-20T04:10:30.772Z,37.75
2022-08-20T04:12:57.735Z,36.92
2022-08-20T04:15:24.887Z,46.80
2022-08-20T04:17:54.314Z,44.47
2022-08-20T04:20:24.166Z,40.40
2022-08-20T04:22:59.039Z,38.45
2022-08-20T04:25:28.597Z,38.65
2022-08-20T04:28:00.214Z,43.90
2022-08-20T04:30:28.136Z,47.53
2022-08-20T04:32:56.214Z,46.45
2022-08-20T04:35:24.665Z,45.28
2022-08-20T04:38:03.249Z,44.53
2022-08-20T04:40:48.987Z,46.72
2022-08-20T04:43:16.378Z,51.72
2022-08-20T04:45:43.793Z,46.90
2022-08-20T04:48:14.896Z,32.28
2022-08-20T04:50:44.845Z,48.53
2022-08-20T04:53:13.628Z,39.22
2022-08-20T04:55:45.991Z,45.85
2022-08-20T04:58:18.142Z,30.38
2022-08-20T05:00:50.616Z,47.33
2022-08-20T05:03:18.178Z,41.03
2022-08-20T05:05:46.599Z,45.28
2022-08-20T05:08:19.601Z,42.13
2022-08-20T05:10:47.685Z,39.90
2022-08-20T05:13:14.834Z,37.35
2022-08-20T05:15:42.514Z,37.38
2022-08-20T05:18:09.573Z,43.42
2022-08-20T05:20:40.252Z,39.80
2022-08-20T05:23:09.978Z,35.00
2022-08-20T05:25:38.289Z,43.97
2022-08-20T05:28:09.561Z,37.78
2022-08-20T05:30:38.218Z,42.08
2022-08-20T05:33:07.980Z,44.10
2022-08-20T05:35:38.578Z,38.78
2022-08-20T05:38:06.882Z,39.22
2022-08-20T05:40:34.409Z,40.58
2022-08-20T05:43:04.434Z,39.78
2022-08-20T05:45:33.811Z,40.13
2022-08-20T05:48:15.405Z,40.33
2022-08-20T05:50:44.336Z,39.85
2022-08-20T05:53:12.288Z,40.13
2022-08-20T05:55:39.504Z,44.10
2022-08-20T05:58:09.212Z,44.72
2022-08-20T06:00:36.251Z,45.17
2022-08-20T06:03:21.755Z,40.53
2022-08-20T06:08:16.789Z,49.13
2022-08-20T06:10:44.382Z,49.20
2022-08-20T06:13:13.946Z,46.95
2022-08-20T06:15:42.262Z,49.30
2022-08-20T06:18:12.388Z,50.15
2022-08-20T06:20:55.152Z,42.83
2022-08-20T06:23:23.222Z,46.90
2022-08-20T06:25:50.473Z,45.25
2022-08-20T06:28:18.686Z,47.50
2022-08-20T06:30:45.607Z,46.25
2022-08-20T06:33:12.839Z,37.92
2022-08-20T06:35:40.053Z,41.20
2022-08-20T06:38:09.355Z,36.47
2022-08-20T06:40:36.270Z,43.50
2022-08-20T06:43:03.030Z,38.22
2022-08-20T06:45:32.645Z,35.65
2022-08-20T06:48:01.335Z,35.47
2022-08-20T06:50:33.097Z,34.78
2022-08-20T06:53:00.452Z,35.00
2022-08-20T06:55:28.069Z,33.35
2022-08-20T06:58:03.677Z,31.90
2022-08-20T07:00:33.280Z,30.90
2022-08-20T07:03:01.202Z,30.42
2022-08-20T07:05:36.589Z,33.22
2022-08-20T07:08:05.026Z,28.35
2022-08-20T07:10:32.140Z,25.05
2022-08-20T07:13:00.314Z,24.67
2022-08-20T07:15:27.593Z,27.58
2022-08-20T07:18:01.604Z,25.20
2022-08-20T07:20:29.434Z,23.20
2022-08-20T07:22:56.566Z,22.25
2022-08-20T07:25:24.596Z,23.13
2022-08-20T07:27:52.059Z,24.35
2022-08-20T07:30:55.795Z,23.23
2022-08-20T07:33:24.657Z,26.90
2022-08-20T07:35:52.092Z,20.38
2022-08-20T07:38:25.546Z,20.98
2022-08-20T07:40:56.318Z,22.50
2022-08-20T07:43:24.157Z,22.58
2022-08-20T07:45:57.561Z,19.13
2022-08-20T07:48:29.721Z,22.55
2022-08-20T07:51:00.692Z,22.80
2022-08-20T07:53:31.159Z,23.75
2022-08-20T07:56:03.333Z,22.33
2022-08-20T07:58:33.405Z,21.42
2022-08-20T08:01:01.040Z,23.92
2022-08-20T08:03:40.775Z,21.92
2022-08-20T08:06:17.222Z,18.38
2022-08-20T08:09:01.770Z,16.83
2022-08-20T08:11:29.919Z,22.42
2022-08-20T08:13:56.866Z,13.25
2022-08-20T08:16:23.755Z,10.02
2022-08-20T08:18:56.749Z,10.13
2022-08-20T08:21:24.517Z,10.35
2022-08-20T08:23:51.464Z,6.57
2022-08-20T08:26:20.626Z,8.15
2022-08-20T08:28:47.581Z,10.23
2022-08-20T08:31:15.006Z,8.65
2022-08-20T08:33:42.347Z,7.78
2022-08-20T08:36:15.173Z,7.32
2022-08-20T08:38:44.293Z,9.48
2022-08-20T08:41:20.304Z,7.18
2022-08-20T08:43:49.875Z,7.25
2022-08-20T08:46:22.702Z,7.47
2022-08-20T08:48:53.594Z,8.95
2022-08-20T08:51:42.693Z,7.50
2022-08-20T08:54:15.919Z,3.88
2022-08-20T08:56:43.494Z,2.92
2022-08-20T08:59:16.701Z,3.17
2022-08-20T09:01:54.616Z,2.50
2022-08-20T09:04:31.745Z,2.40
2022-08-20T09:06:59.945Z,3.72
2022-08-20T09:09:32.868Z,2.58
2022-08-20T09:12:11.993Z,2.60
2022-08-20T09:14:39.522Z,2.38
2022-08-20T09:17:06.932Z,2.10
2022-08-20T09:19:34.298Z,2.97
2022-08-20T09:22:07.998Z,2.33
2022-08-20T09:24:34.893Z,3.15
2022-08-20T09:27:01.695Z,3.08
2022-08-20T09:29:29.396Z,3.03
2022-08-20T09:32:10.810Z,1.98
2022-08-20T09:34:45.990Z,2.92
2022-08-20T09:37:14.630Z,2.53
2022-08-20T09:39:42.305Z,3.25
2022-08-20T09:42:11.609Z,3.08
2022-08-20T09:44:38.995Z,2.58
2022-08-20T09:47:06.221Z,3.10
2022-08-20T09:49:33.432Z,4.10
2022-08-20T09:52:01.754Z,3.33
2022-08-20T09:54:30.217Z,5.18
2022-08-20T09:57:04.546Z,5.07
2022-08-20T09:59:33.737Z,11.23
2022-08-20T10:02:00.723Z,8.63
2022-08-20T10:04:27.629Z,7.03
2022-08-20T10:06:54.514Z,7.93
2022-08-20T10:09:21.516Z,6.53
2022-08-20T10:11:48.428Z,8.77
2022-08-20T10:14:15.183Z,7.65
2022-08-20T10:16:42.120Z,6.95
2022-08-20T10:19:09.131Z,7.03
2022-08-20T10:21:38.901Z,8.48
2022-08-20T10:24:06.433Z,7.85
2022-08-20T10:26:33.393Z,12.05
2022-08-20T10:29:00.234Z,9.82
2022-08-20T10:31:27.059Z,18.42
2022-08-20T10:33:53.905Z,13.32
2022-08-20T10:36:20.676Z,15.80
2022-08-20T10:38:49.056Z,11.57
2022-08-20T10:41:15.997Z,11.05
2022-08-20T10:43:42.774Z,11.20
2022-08-20T10:46:09.803Z,13.57
2022-08-20T10:48:36.698Z,11.27
2022-08-20T10:51:04.163Z,10.00
2022-08-20T10:53:31.173Z,10.40
2022-08-20T10:55:58.690Z,8.95
2022-08-20T10:58:26.692Z,8.93
2022-08-20T11:01:04.678Z,10.25
2022-08-20T11:03:31.783Z,10.48
2022-08-20T11:05:58.672Z,6.50
2022-08-20T11:08:33.790Z,9.32
2022-08-20T11:11:03.430Z,10.30
2022-08-20T11:13:30.310Z,9.50
2022-08-20T11:15:58.207Z,9.18
2022-08-20T11:18:25.061Z,9.35
2022-08-20T11:20:52.338Z,8.48
2022-08-20T11:23:21.858Z,7.15
2022-08-20T11:25:49.070Z,4.78
2022-08-20T11:28:16.204Z,6.38
2022-08-20T11:30:50.076Z,8.48
2022-08-20T11:33:16.872Z,9.38
2022-08-20T11:35:49.236Z,9.20
2022-08-20T11:38:17.584Z,7.82
2022-08-20T11:40:47.395Z,8.10
2022-08-20T11:43:16.170Z,5.80
2022-08-20T11:45:45.913Z,5.65
2022-08-20T11:48:12.860Z,6.00
2022-08-20T11:50:39.742Z,7.43
2022-08-20T11:53:07.909Z,8.90
2022-08-20T11:55:38.649Z,6.43
2022-08-20T11:58:06.890Z,8.60
2022-08-20T12:00:34.433Z,4.95
2022-08-20T12:03:09.125Z,6.75
2022-08-20T12:05:38.041Z,5.10
2022-08-20T12:08:05.886Z,7.28
2022-08-20T12:10:33.395Z,6.43
2022-08-20T12:13:00.399Z,4.78
2022-08-20T12:15:29.729Z,4.05
2022-08-20T12:17:56.793Z,4.90
2022-08-20T12:20:24.511Z,4.68
2022-08-20T12:22:52.691Z,3.38
2022-08-20T12:25:20.023Z,4.63
2022-08-20T12:27:47.448Z,4.30
2022-08-20T12:30:17.627Z,3.08
2022-08-20T12:32:44.834Z,2.75
2022-08-20T12:35:12.986Z,4.88
2022-08-20T12:37:40.794Z,7.85
2022-08-20T12:40:11.578Z,5.50
2022-08-20T12:42:38.776Z,4.18
2022-08-20T12:45:06.530Z,3.78
2022-08-20T12:47:36.295Z,2.95
2022-08-20T12:50:07.809Z,3.97
2022-08-20T12:52:35.541Z,5.30
2022-08-20T12:55:03.443Z,4.72
2022-08-20T12:57:33.793Z,4.43
2022-08-20T13:00:13.052Z,4.05
2022-08-20T13:02:41.258Z,5.28
2022-08-20T13:05:12.350Z,5.32
2022-08-20T13:07:40.163Z,3.60
2022-08-20T13:10:08.960Z,5.22
2022-08-20T13:12:36.537Z,2.80
2022-08-20T13:15:04.308Z,4.32
2022-08-20T13:17:39.085Z,4.97
2022-08-20T13:20:16.769Z,6.60
2022-08-20T13:22:44.026Z,4.57
2022-08-20T13:25:12.014Z,5.03
2022-08-20T13:27:41.824Z,7.15
2022-08-20T13:30:10.890Z,8.38
2022-08-20T13:32:37.749Z,6.28
2022-08-20T13:35:05.074Z,8.82
2022-08-20T13:37:31.929Z,10.30
2022-08-20T13:39:59.755Z,7.00
2022-08-20T13:42:27.792Z,6.15
2022-08-20T13:44:54.985Z,4.75
2022-08-20T13:47:34.344Z,5.68
2022-08-20T13:50:19.706Z,5.47
2022-08-20T13:55:18.062Z,5.47
2022-08-20T13:57:46.920Z,4.30
2022-08-20T14:00:31.813Z,5.85
2022-08-20T14:05:27.378Z,10.20
2022-08-20T14:07:54.323Z,4.38
2022-08-20T14:10:25.336Z,5.68
2022-08-20T14:12:53.187Z,5.22
2022-08-20T14:15:20.249Z,8.23
2022-08-20T14:17:53.030Z,6.95
2022-08-20T14:20:26.002Z,5.78
2022-08-20T14:22:57.139Z,5.80
2022-08-20T14:25:25.743Z,7.25
2022-08-20T14:27:53.208Z,6.97
2022-08-20T14:30:26.563Z,5.82
2022-08-20T14:32:53.929Z,5.22
2022-08-20T14:35:22.028Z,6.38
2022-08-20T14:37:52.310Z,6.43
2022-08-20T14:40:21.301Z,5.82
2022-08-20T14:42:51.765Z,7.13
2022-08-20T14:45:20.413Z,7.15
2022-08-20T14:47:53.816Z,3.53
2022-08-20T14:50:28.379Z,5.68
2022-08-20T14:52:56.259Z,5.88
2022-08-20T14:55:28.928Z,4.40
2022-08-20T14:57:56.172Z,5.22
2022-08-20T15:00:31.117Z,7.78
2022-08-20T15:02:58.172Z,4.25
2022-08-20T15:05:26.010Z,6.40
2022-08-20T15:07:54.371Z,8.85
2022-08-20T15:10:25.199Z,8.25
2022-08-20T15:12:52.331Z,6.25
2022-08-20T15:15:19.406Z,10.07
2022-08-20T15:17:49.814Z,7.78
2022-08-20T15:20:26.615Z,7.82
2022-08-20T15:22:54.349Z,7.95
2022-08-20T15:25:23.541Z,6.15
2022-08-20T15:27:51.101Z,6.25
2022-08-20T15:30:21.676Z,8.20
2022-08-20T15:32:54.112Z,8.10
2022-08-20T15:35:26.034Z,7.57
2022-08-20T15:37:56.496Z,9.25
2022-08-20T15:40:28.272Z,7.53
2022-08-20T15:42:57.075Z,9.60
2022-08-20T15:45:24.143Z,8.45
2022-08-20T15:48:00.101Z,8.80
2022-08-20T15:50:48.346Z,9.02
2022-08-20T15:53:45.157Z,6.72
2022-08-20T15:56:41.130Z,8.82
2022-08-20T15:59:31.201Z,11.38
2022-08-20T16:02:25.493Z,7.25
2022-08-20T16:05:04.811Z,5.53
2022-08-20T16:07:43.926Z,5.50
2022-08-20T16:10:25.769Z,9.00
2022-08-20T16:12:57.676Z,5.70
2022-08-20T16:15:33.520Z,9.23
2022-08-20T16:18:15.327Z,6.63
2022-08-20T16:20:47.899Z,6.30
2022-08-20T16:23:21.507Z,6.80
2022-08-20T16:26:07.131Z,5.63
2022-08-20T16:29:04.903Z,7.57
2022-08-20T16:32:00.801Z,10.80
2022-08-20T16:34:51.493Z,8.65
2022-08-20T16:37:38.433Z,7.22
2022-08-20T16:40:29.144Z,5.88
2022-08-20T16:43:02.213Z,5.35
2022-08-20T16:45:55.068Z,9.60
2022-08-20T16:48:22.286Z,8.27
2022-08-20T16:50:58.805Z,5.85
2022-08-20T16:53:26.346Z,6.28
2022-08-20T16:55:54.493Z,8.93
2022-08-20T16:58:21.399Z,7.63
2022-08-20T17:01:03.239Z,8.85
2022-08-20T17:03:39.242Z,10.38
2022-08-20T17:08:48.604Z,10.77
2022-08-20T17:11:29.393Z,6.07
2022-08-20T17:14:18.490Z,7.95
2022-08-20T17:16:49.272Z,9.30
2022-08-20T17:19:30.946Z,7.22
2022-08-20T17:22:11.062Z,8.35
2022-08-20T17:24:38.686Z,9.02
2022-08-20T17:27:10.788Z,7.40
2022-08-20T17:29:56.160Z,6.70
2022-08-20T17:32:29.394Z,5.55
2022-08-20T17:35:00.815Z,6.22
2022-08-20T17:37:32.714Z,7.70
2022-08-20T17:40:14.824Z,9.18
2022-08-20T17:42:47.567Z,7.40
2022-08-20T17:45:28.291Z,6.65
2022-08-20T17:47:58.620Z,10.23
2022-08-20T17:50:33.238Z,9.48
2022-08-20T17:53:25.410Z,8.13
2022-08-20T17:56:02.607Z,6.93
2022-08-20T17:58:54.222Z,9.20
2022-08-20T18:01:23.940Z,7.00
2022-08-20T18:03:53.120Z,5.80
2022-08-20T18:06:30.652Z,6.70
2022-08-20T18:09:04.535Z,8.27
2022-08-20T18:11:49.493Z,9.55
2022-08-20T18:14:46.754Z,9.38
2022-08-20T18:17:32.328Z,12.32
2022-08-20T18:20:17.513Z,5.90
2022-08-20T18:23:04.345Z,7.38
2022-08-20T18:25:48.677Z,6.00
2022-08-20T18:28:37.755Z,8.82
2022-08-20T18:31:09.101Z,5.90
2022-08-20T18:33:43.329Z,5.28
2022-08-20T18:36:19.815Z,5.32
2022-08-20T18:39:10.941Z,6.50
2022-08-20T18:41:41.183Z,5.28
2022-08-20T18:44:27.624Z,6.55
2022-08-20T18:47:02.966Z,6.03
2022-08-20T18:49:36.918Z,10.30
2022-08-20T18:52:14.739Z,4.85
2022-08-20T18:54:50.471Z,7.53
2022-08-20T18:57:40.706Z,6.68
2022-08-20T19:00:12.494Z,8.40
2022-08-20T19:03:03.007Z,4.47
2022-08-20T19:05:40.386Z,5.28
2022-08-20T19:08:08.864Z,8.82
2022-08-20T19:11:17.775Z,8.65
2022-08-20T19:14:09.277Z,10.93
2022-08-20T19:16:46.213Z,11.48
2022-08-20T19:19:19.560Z,7.00
2022-08-20T19:21:47.287Z,10.98
2022-08-20T19:24:27.459Z,8.55
2022-08-20T19:26:58.641Z,7.38
2022-08-20T19:29:33.323Z,5.97
2022-08-20T19:32:02.832Z,9.82
2022-08-20T19:34:31.551Z,7.10
2022-08-20T19:37:34.950Z,8.20
2022-08-20T19:39:59.624Z,6.65
2022-08-20T19:42:33.694Z,6.47
2022-08-20T19:45:06.305Z,7.93
2022-08-20T19:47:53.064Z,4.82
2022-08-20T19:50:31.638Z,12.40
2022-08-20T19:53:28.831Z,10.10
2022-08-20T19:56:12.207Z,5.85
2022-08-20T19:58:40.818Z,8.50
2022-08-20T20:01:17.703Z,10.63
2022-08-20T20:03:57.282Z,7.03
2022-08-20T20:06:27.236Z,7.10
2022-08-20T20:09:08.054Z,8.23
2022-08-20T20:11:57.564Z,10.82
2022-08-20T20:14:36.572Z,7.80
2022-08-20T20:17:09.064Z,13.13
2022-08-20T20:19:46.921Z,10.10
2022-08-20T20:22:20.452Z,8.88
2022-08-20T20:25:17.942Z,10.55
2022-08-20T20:27:51.833Z,10.05
2022-08-20T20:30:31.704Z,9.60
2022-08-20T20:33:01.874Z,9.57
2022-08-20T20:35:34.737Z,10.85
2022-08-20T20:38:24.377Z,11.05
2022-08-20T20:41:03.594Z,9.55
2022-08-20T20:43:41.670Z,11.65
2022-08-20T20:46:20.684Z,10.50
2022-08-20T20:48:54.509Z,8.85
2022-08-20T20:51:34.340Z,9.80
2022-08-20T20:54:05.790Z,12.32
2022-08-20T20:56:42.213Z,12.07
2022-08-20T20:59:10.817Z,7.97
2022-08-20T21:01:48.129Z,11.50
2022-08-20T21:04:15.688Z,4.72
2022-08-20T21:06:42.708Z,7.38
2022-08-20T21:09:09.807Z,6.70
2022-08-20T21:11:37.034Z,7.72
2022-08-20T21:14:04.210Z,9.98
2022-08-20T21:16:31.292Z,13.52
2022-08-20T21:18:58.483Z,9.05
2022-08-20T21:21:25.697Z,9.73
2022-08-20T21:23:52.737Z,12.45
2022-08-20T21:26:19.849Z,13.43
2022-08-20T21:28:46.940Z,10.88
2022-08-20T21:31:13.896Z,11.32
2022-08-20T21:33:40.973Z,8.57
2022-08-20T21:36:08.130Z,12.05
2022-08-20T21:38:36.336Z,8.27
2022-08-20T21:41:03.409Z,9.07
2022-08-20T21:43:32.869Z,7.97
2022-08-20T21:46:02.336Z,11.98
2022-08-20T21:48:30.398Z,11.10
2022-08-20T21:50:57.446Z,9.90
2022-08-20T21:53:24.673Z,7.38
2022-08-20T21:55:51.858Z,8.68
2022-08-20T21:58:20.437Z,12.00
2022-08-20T22:01:01.346Z,8.68
2022-08-20T22:03:31.558Z,9.23
2022-08-20T22:06:00.963Z,7.60
2022-08-20T22:08:28.553Z,8.20
2022-08-20T22:10:57.864Z,9.48
2022-08-20T22:13:31.355Z,8.85
2022-08-20T22:16:03.271Z,8.38
2022-08-20T22:18:30.441Z,9.27
2022-08-20T22:20:58.137Z,9.07
2022-08-20T22:23:25.942Z,9.93
2022-08-20T22:25:53.301Z,9.07
2022-08-20T22:28:21.055Z,7.72
2022-08-20T22:30:48.060Z,8.00
2022-08-20T22:33:20.052Z,11.98
2022-08-20T22:35:50.725Z,7.53
2022-08-20T22:38:18.292Z,10.40
2022-08-20T22:40:45.327Z,12.13
2022-08-20T22:43:13.275Z,14.82
2022-08-20T22:45:42.691Z,11.82
2022-08-20T22:48:11.325Z,12.30
2022-08-20T22:50:38.553Z,10.90
2022-08-20T22:53:07.286Z,16.52
2022-08-20T22:55:34.804Z,19.38
2022-08-20T22:58:03.320Z,16.10
2022-08-20T23:00:33.284Z,13.27
2022-08-20T23:03:01.151Z,14.05
2022-08-20T23:05:31.680Z,13.82
2022-08-20T23:08:00.077Z,8.02
2022-08-20T23:10:29.781Z,12.70
2022-08-20T23:12:57.546Z,11.05
2022-08-20T23:15:27.187Z,11.98
2022-08-20T23:18:00.153Z,14.00
2022-08-20T23:20:27.102Z,11.45
2022-08-20T23:22:54.863Z,11.50
2022-08-20T23:25:22.212Z,11.15
2022-08-20T23:27:52.287Z,12.63
2022-08-20T23:30:21.507Z,13.70
2022-08-20T23:32:48.573Z,11.95
2022-08-20T23:35:15.948Z,13.98
2022-08-20T23:37:50.865Z,12.25
2022-08-20T23:40:26.953Z,10.77
2022-08-20T23:42:56.232Z,11.77
2022-08-20T23:45:23.958Z,14.90
2022-08-20T23:47:52.114Z,8.73
2022-08-20T23:50:24.252Z,9.20
2022-08-20T23:52:52.179Z,10.73
2022-08-20T23:55:20.837Z,9.45
2022-08-20T23:57:47.880Z,8.75
